createdAt,value
2022-11-01T00:01:36.827Z,100.00
2022-11-01T00:04:05.916Z,100.00
2022-11-01T00:06:33.641Z,100.00
2022-11-01T00:09:01.291Z,100.00
2022-11-01T00:11:28.995Z,100.00
2022-11-01T00:13:56.719Z,100.00
2022-11-01T00:16:24.350Z,100.00
2022-11-01T00:18:52.006Z,100.00
2022-11-01T00:21:21.301Z,100.00
2022-11-01T00:23:49.210Z,100.00
2022-11-01T00:26:18.811Z,100.00
2022-11-01T00:28:46.823Z,100.00
2022-11-01T00:31:14.921Z,100.00
2022-11-01T00:33:42.889Z,100.00
2022-11-01T00:36:10.920Z,100.00
2022-11-01T00:38:40.380Z,100.00
2022-11-01T00:41:08.332Z,100.00
2022-11-01T00:43:36.895Z,100.00
2022-11-01T00:46:05.054Z,100.00
2022-11-01T00:48:32.805Z,100.00
2022-11-01T00:51:00.451Z,100.00
2022-11-01T00:53:28.118Z,100.00
2022-11-01T00:56:01.966Z,100.00
2022-11-01T00:58:29.728Z,100.00
2022-11-01T01:00:57.717Z,100.00
2022-11-01T01:03:25.520Z,100.00
2022-11-01T01:05:54.059Z,100.00
2022-11-01T01:08:21.904Z,100.00
2022-11-01T01:10:49.592Z,100.00
2022-11-01T01:13:18.603Z,100.00
2022-11-01T01:15:46.250Z,100.00
2022-11-01T01:18:14.307Z,100.00
2022-11-01T01:20:41.926Z,100.00
2022-11-01T01:23:09.583Z,100.00
2022-11-01T01:25:39.512Z,100.00
2022-11-01T01:28:07.118Z,100.00
2022-11-01T01:30:36.105Z,100.00
2022-11-01T01:33:03.797Z,100.00
2022-11-01T01:35:31.502Z,100.00
2022-11-01T01:37:59.358Z,100.00
2022-11-01T01:40:27.470Z,100.00
2022-11-01T01:42:55.105Z,100.00
2022-11-01T01:45:29.745Z,100.00
2022-11-01T01:48:01.155Z,100.00
2022-11-01T01:50:31.930Z,100.00
2022-11-01T01:53:03.361Z,100.00
2022-11-01T01:55:33.936Z,100.00
2022-11-01T01:58:05.844Z,100.00
2022-11-01T02:00:34.235Z,100.00
2022-11-01T02:03:03.856Z,100.00
2022-11-01T02:05:35.783Z,100.00
2022-11-01T02:08:04.155Z,100.00
2022-11-01T02:10:32.272Z,100.00
2022-11-01T02:13:00.006Z,100.00
2022-11-01T02:15:31.779Z,100.00
2022-11-01T02:18:08.322Z,100.00
2022-11-01T02:20:43.351Z,100.00
2022-11-01T02:23:28.702Z,100.00
2022-11-01T02:26:04.653Z,100.00
2022-11-01T02:28:46.885Z,100.00
2022-11-01T02:31:24.623Z,100.00
2022-11-01T02:33:56.568Z,100.00
2022-11-01T02:36:27.545Z,100.00
2022-11-01T02:38:59.957Z,100.00
2022-11-01T02:41:31.587Z,100.00
2022-11-01T02:44:01.294Z,100.00
2022-11-01T02:46:45.562Z,100.00
2022-11-01T02:49:16.786Z,100.00
2022-11-01T02:51:45.494Z,100.00
2022-11-01T02:54:21.596Z,100.00
2022-11-01T02:56:49.642Z,100.00
2022-11-01T02:59:19.326Z,100.00
2022-11-01T03:01:50.734Z,100.00
2022-11-01T03:04:19.838Z,100.00
2022-11-01T03:06:50.564Z,100.00
2022-11-01T03:09:18.368Z,100.00
2022-11-01T03:11:50.264Z,100.00
2022-11-01T03:14:24.277Z,100.00
2022-11-01T03:16:54.923Z,100.00
2022-11-01T03:19:31.456Z,100.00
2022-11-01T03:22:02.898Z,100.00
2022-11-01T03:24:32.936Z,100.00
2022-11-01T03:27:04.009Z,100.00
2022-11-01T03:29:33.230Z,100.00
2022-11-01T03:32:02.919Z,100.00
2022-11-01T03:34:33.951Z,100.00
2022-11-01T03:37:03.382Z,100.00
2022-11-01T03:39:33.757Z,100.00
2022-11-01T03:42:04.822Z,100.00
2022-11-01T03:44:34.123Z,100.00
2022-11-01T03:47:01.778Z,100.00
2022-11-01T03:49:29.384Z,100.00
2022-11-01T03:51:58.370Z,100.00
2022-11-01T03:54:27.258Z,100.00
2022-11-01T03:56:54.931Z,100.00
2022-11-01T03:59:23.266Z,100.00
2022-11-01T04:01:51.107Z,100.00
2022-11-01T04:04:19.090Z,100.00
2022-11-01T04:06:46.838Z,100.00
2022-11-01T04:09:15.877Z,100.00
2022-11-01T04:11:43.775Z,100.00
2022-11-01T04:14:29.165Z,100.00
2022-11-01T04:17:14.434Z,100.00
2022-11-01T04:19:59.723Z,100.00
2022-11-01T04:22:27.473Z,100.00
2022-11-01T04:24:56.469Z,100.00
2022-11-01T04:27:24.406Z,100.00
2022-11-01T04:29:51.980Z,100.00
2022-11-01T04:32:19.617Z,100.00
2022-11-01T04:34:47.237Z,100.00
2022-11-01T04:37:14.884Z,100.00
2022-11-01T04:39:43.111Z,100.00
2022-11-01T04:42:12.148Z,100.00
2022-11-01T04:44:39.832Z,100.00
2022-11-01T04:47:07.431Z,100.00
2022-11-01T04:49:35.066Z,100.00
2022-11-01T04:52:02.682Z,100.00
2022-11-01T04:54:33.602Z,100.00
2022-11-01T04:57:01.382Z,100.00
2022-11-01T04:59:30.372Z,100.00
2022-11-01T05:01:58.091Z,100.00
2022-11-01T05:04:25.731Z,100.00
2022-11-01T05:06:53.393Z,100.00
2022-11-01T05:09:20.995Z,100.00
2022-11-01T05:11:48.605Z,100.00
2022-11-01T05:14:16.210Z,100.00
2022-11-01T05:16:45.178Z,100.00
2022-11-01T05:19:12.743Z,100.00
2022-11-01T05:21:40.382Z,100.00
2022-11-01T05:24:08.448Z,100.00
2022-11-01T05:26:36.248Z,100.00
2022-11-01T05:29:08.955Z,100.00
2022-11-01T05:31:47.593Z,100.00
2022-11-01T05:34:15.542Z,100.00
2022-11-01T05:36:43.467Z,100.00
2022-11-01T05:39:11.502Z,100.00
2022-11-01T05:41:40.589Z,100.00
2022-11-01T05:44:08.604Z,100.00
2022-11-01T05:46:36.503Z,100.00
2022-11-01T05:49:05.965Z,100.00
2022-11-01T05:51:33.931Z,100.00
2022-11-01T05:54:01.943Z,100.00
2022-11-01T05:56:29.953Z,100.00
2022-11-01T05:58:57.930Z,100.00
2022-11-01T06:01:25.860Z,100.00
2022-11-01T06:03:54.147Z,100.00
2022-11-01T06:06:23.420Z,100.00
2022-11-01T06:08:51.480Z,100.00
2022-11-01T06:11:19.466Z,100.00
2022-11-01T06:13:47.390Z,100.00
2022-11-01T06:16:15.299Z,100.00
2022-11-01T06:18:43.234Z,100.00
2022-11-01T06:21:11.243Z,100.00
2022-11-01T06:23:40.660Z,100.00
2022-11-01T06:26:08.661Z,100.00
2022-11-01T06:28:36.558Z,100.00
2022-11-01T06:33:34.053Z,100.00
2022-11-01T06:36:01.954Z,100.00
2022-11-01T06:38:31.203Z,100.00
2022-11-01T06:41:01.537Z,100.00
2022-11-01T06:43:32.069Z,100.00
2022-11-01T06:46:01.115Z,100.00
2022-11-01T06:48:29.296Z,100.00
2022-11-01T06:50:56.915Z,100.00
2022-11-01T06:53:24.914Z,100.00
2022-11-01T06:55:52.571Z,100.00
2022-11-01T06:58:21.472Z,100.00
2022-11-01T07:00:49.172Z,100.00
2022-11-01T07:03:16.893Z,100.00
2022-11-01T07:05:44.878Z,100.00
2022-11-01T07:08:13.912Z,100.00
2022-11-01T07:10:42.941Z,100.00
2022-11-01T07:13:12.186Z,100.00
2022-11-01T07:15:41.442Z,100.00
2022-11-01T07:18:09.704Z,100.00
2022-11-01T07:20:42.309Z,100.00
2022-11-01T07:23:11.665Z,100.00
2022-11-01T07:25:39.281Z,100.00
2022-11-01T07:28:06.923Z,100.00
2022-11-01T07:30:34.545Z,100.00
2022-11-01T07:33:05.742Z,100.00
2022-11-01T07:35:34.650Z,100.00
2022-11-01T07:38:05.189Z,100.00
2022-11-01T07:40:36.850Z,100.00
2022-11-01T07:43:04.857Z,100.00
2022-11-01T07:45:33.355Z,100.00
2022-11-01T07:48:17.021Z,100.00
2022-11-01T08:38:23.069Z,100.00
2022-11-01T08:40:50.850Z,100.00
2022-11-01T08:43:18.749Z,100.00
2022-11-01T08:45:46.625Z,100.00
2022-11-01T08:48:14.963Z,100.00
2022-11-01T08:50:42.772Z,100.00
2022-11-01T08:53:12.095Z,100.00
2022-11-01T08:55:41.762Z,100.00
2022-11-01T08:58:09.981Z,100.00
2022-11-01T09:00:38.000Z,100.00
2022-11-01T09:03:06.356Z,100.00
2022-11-01T09:05:34.458Z,100.00
2022-11-01T09:08:03.009Z,100.00
2022-11-01T09:10:32.180Z,100.00
2022-11-01T09:13:02.375Z,100.00
2022-11-01T09:15:31.197Z,100.00
2022-11-01T09:17:59.071Z,100.00
2022-11-01T09:20:28.208Z,100.00
2022-11-01T09:22:56.112Z,100.00
2022-11-01T09:25:24.788Z,100.00
2022-11-01T09:27:52.608Z,100.00
2022-11-01T09:30:21.960Z,100.00
2022-11-01T09:32:49.798Z,100.00
2022-11-01T09:35:18.040Z,100.00
2022-11-01T09:37:45.902Z,100.00
2022-11-01T09:40:15.784Z,100.00
2022-11-01T09:42:45.371Z,100.00
2022-11-01T09:45:18.852Z,100.00
2022-11-01T09:47:51.270Z,100.00
2022-11-01T09:50:23.573Z,100.00
2022-11-01T09:52:52.318Z,100.00
2022-11-01T09:55:27.114Z,100.00
2022-11-01T09:58:02.111Z,100.00
2022-11-01T10:00:36.613Z,100.00
2022-11-01T10:03:35.600Z,100.00
2022-11-01T10:06:11.763Z,100.00
2022-11-01T10:08:54.557Z,100.00
2022-11-01T10:11:44.819Z,100.00
2022-11-01T10:14:28.648Z,99.87
2022-11-01T10:17:06.858Z,99.27
2022-11-01T10:19:51.804Z,98.85
2022-11-01T10:22:24.952Z,97.92
2022-11-01T10:24:58.574Z,98.84
2022-11-01T10:27:36.266Z,98.42
2022-11-01T10:30:12.270Z,97.81
2022-11-01T10:32:46.840Z,96.79
2022-11-01T10:35:26.513Z,97.65
2022-11-01T10:38:19.246Z,98.40
2022-11-01T10:40:56.345Z,98.51
2022-11-01T10:43:26.887Z,98.25
2022-11-01T10:45:58.816Z,97.86
2022-11-01T10:48:33.012Z,95.85
2022-11-01T10:51:06.634Z,95.73
2022-11-01T10:53:38.914Z,95.82
2022-11-01T10:56:10.281Z,94.86
2022-11-01T10:58:43.686Z,94.63
2022-11-01T11:01:15.911Z,95.11
2022-11-01T11:03:46.880Z,93.32
2022-11-01T11:06:16.874Z,93.24
2022-11-01T11:08:50.320Z,92.72
2022-11-01T11:11:23.308Z,92.53
2022-11-01T11:13:55.140Z,91.89
2022-11-01T11:16:31.602Z,91.82
2022-11-01T11:19:04.129Z,91.52
2022-11-01T11:21:36.344Z,90.85
2022-11-01T11:24:04.527Z,92.33
2022-11-01T11:26:39.069Z,91.42
2022-11-01T11:29:07.336Z,91.40
2022-11-01T11:31:36.135Z,91.12
2022-11-01T11:34:16.349Z,90.26
2022-11-01T11:36:49.821Z,89.71
2022-11-01T11:39:25.813Z,89.37
2022-11-01T11:41:53.730Z,89.71
2022-11-01T11:44:41.386Z,88.91
2022-11-01T11:47:19.503Z,88.85
2022-11-01T11:49:48.491Z,89.45
2022-11-01T11:52:21.801Z,87.31
2022-11-01T11:54:51.272Z,86.21
2022-11-01T11:57:22.014Z,85.14
2022-11-01T11:59:55.478Z,84.23
2022-11-01T12:02:27.621Z,84.04
2022-11-01T12:04:58.364Z,84.19
2022-11-01T12:07:31.075Z,83.57
2022-11-01T12:10:02.918Z,83.96
2022-11-01T12:12:32.503Z,84.82
2022-11-01T12:15:02.088Z,85.15
2022-11-01T12:17:33.387Z,84.90
2022-11-01T12:20:04.093Z,85.03
2022-11-01T12:22:36.287Z,84.86
2022-11-01T12:25:08.265Z,84.90
2022-11-01T12:27:36.790Z,85.03
2022-11-01T12:30:08.618Z,85.01
2022-11-01T12:32:44.996Z,84.85
2022-11-01T12:35:21.983Z,85.37
2022-11-01T12:38:02.200Z,85.58
2022-11-01T12:40:33.323Z,85.99
2022-11-01T12:43:06.848Z,84.94
2022-11-01T12:45:44.811Z,86.80
2022-11-01T12:48:18.263Z,86.53
2022-11-01T12:50:51.680Z,87.16
2022-11-01T12:53:26.434Z,87.59
2022-11-01T12:55:54.681Z,88.27
2022-11-01T12:58:24.047Z,87.46
2022-11-01T13:01:08.971Z,87.66
2022-11-01T13:03:47.642Z,87.63
2022-11-01T13:06:39.660Z,87.68
2022-11-01T13:09:14.976Z,87.57
2022-11-01T13:11:54.681Z,87.60
2022-11-01T13:14:38.937Z,87.31
2022-11-01T13:17:14.235Z,86.80
2022-11-01T13:19:50.759Z,86.32
2022-11-01T13:22:24.042Z,85.51
2022-11-01T13:25:00.650Z,85.98
2022-11-01T13:27:37.312Z,85.86
2022-11-01T13:30:10.606Z,86.97
2022-11-01T13:32:46.222Z,86.42
2022-11-01T13:35:34.393Z,86.13
2022-11-01T13:38:09.911Z,85.02
2022-11-01T13:40:47.467Z,83.96
2022-11-01T13:43:19.454Z,83.33
2022-11-01T13:46:15.763Z,83.91
2022-11-01T13:49:04.434Z,81.96
2022-11-01T13:51:44.267Z,82.33
2022-11-01T13:54:22.149Z,80.72
2022-11-01T13:56:56.991Z,81.31
2022-11-01T13:59:33.840Z,83.12
2022-11-01T14:02:38.521Z,80.32
2022-11-01T14:05:09.852Z,79.49
2022-11-01T14:07:39.000Z,81.52
2022-11-01T14:10:11.984Z,80.68
2022-11-01T14:12:48.110Z,81.89
2022-11-01T14:15:24.737Z,81.45
2022-11-01T14:18:07.749Z,81.48
2022-11-01T14:20:51.748Z,80.66
2022-11-01T14:24:00.284Z,76.54
2022-11-01T14:26:39.893Z,75.93
2022-11-01T14:29:13.020Z,76.12
2022-11-01T14:31:44.257Z,75.94
2022-11-01T14:34:35.395Z,74.58
2022-11-01T14:37:14.913Z,75.93
2022-11-01T14:39:49.040Z,77.03
2022-11-01T14:42:23.123Z,77.44
2022-11-01T14:44:54.913Z,77.14
2022-11-01T14:47:36.733Z,77.24
2022-11-01T14:50:15.732Z,78.34
2022-11-01T14:52:48.609Z,78.63
2022-11-01T14:55:19.892Z,79.00
2022-11-01T14:57:48.571Z,80.18
2022-11-01T15:00:26.385Z,80.63
2022-11-01T15:02:54.291Z,80.60
2022-11-01T15:05:22.415Z,80.10
2022-11-01T15:07:52.607Z,80.85
2022-11-01T15:10:21.088Z,80.22
2022-11-01T15:12:52.769Z,81.39
2022-11-01T15:15:24.920Z,81.38
2022-11-01T15:17:56.431Z,82.51
2022-11-01T15:20:27.346Z,83.48
2022-11-01T15:22:57.779Z,82.57
2022-11-01T15:25:27.499Z,83.07
2022-11-01T15:27:57.070Z,83.59
2022-11-01T15:30:30.140Z,83.70
2022-11-01T15:33:16.878Z,83.94
2022-11-01T15:35:53.417Z,83.81
2022-11-01T15:38:22.124Z,84.10
2022-11-01T15:40:52.194Z,83.69
2022-11-01T15:43:22.173Z,84.51
2022-11-01T15:45:54.867Z,84.92
2022-11-01T15:48:26.791Z,85.93
2022-11-01T15:50:58.334Z,86.14
2022-11-01T15:53:29.417Z,86.83
2022-11-01T15:56:03.445Z,86.73
2022-11-01T15:58:37.556Z,86.85
2022-11-01T16:01:14.121Z,87.81
2022-11-01T16:03:44.922Z,87.95
2022-11-01T16:06:17.785Z,88.11
2022-11-01T16:08:52.001Z,88.96
2022-11-01T16:11:22.597Z,88.98
2022-11-01T16:13:52.849Z,89.03
2022-11-01T16:16:22.139Z,88.96
2022-11-01T16:18:50.029Z,88.67
2022-11-01T16:21:36.305Z,89.41
2022-11-01T16:24:15.484Z,88.41
2022-11-01T16:26:58.392Z,88.35
2022-11-01T16:29:43.703Z,87.85
2022-11-01T16:32:20.816Z,87.71
2022-11-01T16:34:49.031Z,87.69
2022-11-01T16:37:22.660Z,87.85
2022-11-01T16:39:50.531Z,89.14
2022-11-01T16:42:19.166Z,89.53
2022-11-01T16:44:55.861Z,88.95
2022-11-01T16:47:25.140Z,88.94
2022-11-01T16:49:55.056Z,88.94
2022-11-01T16:52:22.935Z,89.41
2022-11-01T16:54:51.417Z,91.16
2022-11-01T16:57:26.027Z,91.59
2022-11-01T16:59:55.589Z,91.16
2022-11-01T17:02:27.990Z,91.54
2022-11-01T17:04:59.645Z,90.93
2022-11-01T17:07:27.663Z,91.27
2022-11-01T17:09:55.703Z,91.21
2022-11-01T17:12:23.538Z,91.32
2022-11-01T17:14:52.470Z,92.13
2022-11-01T17:17:24.651Z,92.44
2022-11-01T17:19:59.882Z,92.69
2022-11-01T17:22:35.127Z,93.61
2022-11-01T17:25:04.639Z,92.98
2022-11-01T17:27:32.591Z,93.92
2022-11-01T17:30:00.479Z,93.58
2022-11-01T17:32:28.775Z,93.74
2022-11-01T17:34:57.983Z,94.32
2022-11-01T17:37:29.997Z,93.55
2022-11-01T17:39:57.858Z,94.07
2022-11-01T17:42:25.665Z,94.44
2022-11-01T17:44:53.686Z,95.40
2022-11-01T17:47:21.606Z,97.50
2022-11-01T17:49:49.453Z,98.74
2022-11-01T17:52:18.921Z,98.44
2022-11-01T17:54:46.680Z,99.42
2022-11-01T17:57:14.491Z,98.85
2022-11-01T17:59:42.348Z,99.86
2022-11-01T18:02:11.014Z,100.00
2022-11-01T18:04:38.890Z,98.92
2022-11-01T18:07:07.478Z,98.41
2022-11-01T18:09:37.355Z,98.87
2022-11-01T18:12:11.677Z,100.00
2022-11-01T18:14:50.543Z,100.00
2022-11-01T18:17:35.801Z,100.00
2022-11-01T18:20:14.145Z,100.00
2022-11-01T18:22:50.428Z,100.00
2022-11-01T18:25:28.505Z,100.00
2022-11-01T18:28:00.152Z,100.00
2022-11-01T18:30:28.509Z,100.00
2022-11-01T18:33:03.262Z,100.00
2022-11-01T18:35:34.448Z,100.00
2022-11-01T18:38:17.810Z,100.00
2022-11-01T18:40:56.674Z,100.00
2022-11-01T18:43:25.107Z,100.00
2022-11-01T18:46:23.280Z,100.00
2022-11-01T18:48:42.932Z,100.00
2022-11-01T18:51:14.913Z,100.00
2022-11-01T18:53:43.064Z,100.00
2022-11-01T18:56:21.298Z,100.00
2022-11-01T18:58:50.439Z,100.00
2022-11-01T19:01:19.794Z,100.00
2022-11-01T19:03:57.154Z,100.00
2022-11-01T19:06:27.095Z,100.00
2022-11-01T19:08:57.016Z,100.00
2022-11-01T19:11:26.933Z,100.00
2022-11-01T19:13:55.731Z,100.00
2022-11-01T19:16:23.567Z,100.00
2022-11-01T19:18:52.344Z,100.00
2022-11-01T19:21:21.473Z,100.00
2022-11-01T19:23:51.223Z,100.00
2022-11-01T19:26:23.873Z,100.00
2022-11-01T19:28:53.742Z,100.00
2022-11-01T19:31:25.929Z,100.00
2022-11-01T19:33:59.012Z,100.00
2022-11-01T19:36:36.588Z,100.00
2022-11-01T19:39:18.118Z,100.00
2022-11-01T19:41:46.491Z,100.00
2022-11-01T19:44:20.379Z,100.00
2022-11-01T19:46:48.814Z,100.00
2022-11-01T19:49:22.554Z,100.00
2022-11-01T19:51:59.196Z,100.00
2022-11-01T19:54:29.903Z,100.00
2022-11-01T19:57:00.246Z,100.00
2022-11-01T19:59:29.872Z,100.00
2022-11-01T20:01:59.035Z,100.00
2022-11-01T20:04:29.671Z,100.00
2022-11-01T20:07:01.273Z,100.00
2022-11-01T20:09:31.657Z,100.00
2022-11-01T20:12:01.595Z,100.00
2022-11-01T20:14:33.271Z,100.00
2022-11-01T20:17:01.075Z,100.00
2022-11-01T20:19:29.145Z,100.00
2022-11-01T20:21:57.131Z,100.00
2022-11-01T20:24:24.914Z,100.00
2022-11-01T20:26:52.757Z,100.00
2022-11-01T20:29:20.620Z,100.00
2022-11-01T20:31:49.976Z,100.00
2022-11-01T20:34:17.866Z,100.00
2022-11-01T20:37:02.225Z,100.00
2022-11-01T20:39:33.737Z,100.00
2022-11-01T20:42:02.037Z,100.00
2022-11-01T20:44:30.181Z,100.00
2022-11-01T20:46:59.675Z,100.00
2022-11-01T20:49:27.853Z,100.00
2022-11-01T20:52:00.520Z,100.00
2022-11-01T20:54:36.061Z,100.00
2022-11-01T20:57:04.504Z,100.00
2022-11-01T20:59:32.420Z,100.00
2022-11-01T21:02:04.013Z,100.00
2022-11-01T21:04:32.491Z,100.00
2022-11-01T21:07:00.364Z,100.00
2022-11-01T21:09:32.428Z,100.00
2022-11-01T21:12:00.431Z,100.00
2022-11-01T21:14:37.280Z,100.00
2022-11-01T21:17:17.759Z,100.00
2022-11-01T21:19:50.140Z,100.00
2022-11-01T21:22:20.842Z,100.00
2022-11-01T21:24:50.350Z,100.00
2022-11-01T21:27:25.243Z,100.00
2022-11-01T21:29:54.112Z,100.00
2022-11-01T21:32:29.846Z,100.00
2022-11-01T21:34:58.475Z,100.00
2022-11-01T21:37:29.714Z,100.00
2022-11-01T21:40:05.718Z,100.00
2022-11-01T21:42:37.059Z,100.00
2022-11-01T21:45:28.323Z,100.00
2022-11-01T21:48:00.854Z,100.00
2022-11-01T21:50:28.931Z,100.00
2022-11-01T21:52:56.698Z,100.00
2022-11-01T21:55:24.453Z,100.00
2022-11-01T21:57:52.272Z,100.00
2022-11-01T22:00:20.133Z,100.00
2022-11-01T22:02:47.951Z,100.00
2022-11-01T22:05:17.380Z,100.00
2022-11-01T22:07:45.210Z,100.00
2022-11-01T22:10:13.039Z,100.00
2022-11-01T22:12:40.854Z,100.00
2022-11-01T22:15:09.524Z,100.00
2022-11-01T22:17:37.296Z,100.00
2022-11-01T22:20:06.082Z,100.00
2022-11-01T22:22:35.211Z,100.00
2022-11-01T22:25:02.995Z,100.00
2022-11-01T22:27:30.786Z,100.00
2022-11-01T22:29:58.645Z,100.00
2022-11-01T22:32:26.393Z,100.00
2022-11-01T22:34:54.216Z,100.00
2022-11-01T22:37:21.979Z,100.00
2022-11-01T22:39:53.128Z,100.00
2022-11-01T22:42:21.909Z,100.00
2022-11-01T22:44:51.613Z,100.00
2022-11-01T22:47:25.559Z,100.00
2022-11-01T22:49:55.525Z,100.00
2022-11-01T22:52:31.671Z,100.00
2022-11-01T22:55:06.820Z,100.00
2022-11-01T22:57:36.643Z,100.00
2022-11-01T23:00:28.095Z,100.00
2022-11-01T23:03:01.241Z,100.00
2022-11-01T23:05:29.835Z,100.00
2022-11-01T23:08:01.687Z,100.00
2022-11-01T23:10:32.866Z,100.00
2022-11-01T23:13:25.454Z,100.00
2022-11-01T23:15:53.361Z,100.00
2022-11-01T23:18:23.916Z,100.00
2022-11-01T23:20:54.544Z,100.00
2022-11-01T23:23:22.430Z,100.00
2022-11-01T23:25:53.226Z,100.00
2022-11-01T23:28:21.230Z,100.00
2022-11-01T23:30:49.565Z,100.00
2022-11-01T23:33:20.109Z,100.00
2022-11-01T23:35:52.013Z,100.00
2022-11-01T23:38:22.661Z,100.00
2022-11-01T23:40:54.823Z,100.00
2022-11-01T23:43:25.476Z,100.00
2022-11-01T23:45:53.674Z,100.00
2022-11-01T23:48:23.732Z,100.00
2022-11-01T23:50:54.137Z,100.00
2022-11-01T23:53:29.283Z,100.00
2022-11-01T23:56:00.026Z,100.00
2022-11-01T23:58:30.939Z,100.00
